Time;durP1;ratioP1;P1;durP2;ratioP2;P2;SDS_P1;SDS_P2;PMS_P1;PMS_P2;Temp;Humidity;BMP_temperature;BMP_pressure;BME280_temperature;BME280_humidity;BME280_pressure;Samples;Min_cycle;Max_cycle;Signal;HPM_P1;HPM_P2
2022/03/17 00:01:39;;;;;;;50.78;28.50;;;3.90;99.90;;;;;;5022056;28;20037;-57
2022/03/17 00:04:05;;;;;;;52.85;29.42;;;3.80;99.90;;;;;;5020402;28;20107;-56
2022/03/17 00:06:31;;;;;;;47.10;28.77;;;3.80;99.90;;;;;;5016001;28;20124;-60
2022/03/17 00:08:57;;;;;;;51.13;29.42;;;3.80;99.90;;;;;;5020478;28;20056;-59
2022/03/17 00:11:23;;;;;;;50.60;28.65;;;3.80;99.90;;;;;;5015248;28;20025;-60
2022/03/17 00:13:49;;;;;;;51.22;28.65;;;3.80;99.90;;;;;;5017507;28;21041;-57
2022/03/17 00:16:15;;;;;;;53.00;30.10;;;3.80;99.90;;;;;;5017327;28;20033;-59
2022/03/17 00:18:40;;;;;;;52.38;28.17;;;3.90;99.90;;;;;;5018229;28;20488;-59
2022/03/17 00:21:06;;;;;;;50.03;29.40;;;3.90;99.90;;;;;;5019117;28;20034;-61
2022/03/17 00:23:32;;;;;;;44.95;27.95;;;3.90;99.90;;;;;;5018613;28;20490;-57
2022/03/17 00:25:57;;;;;;;54.97;31.30;;;3.90;99.90;;;;;;5018167;28;20045;-59
2022/03/17 00:28:23;;;;;;;47.25;29.13;;;3.90;99.90;;;;;;5018011;28;20034;-60
2022/03/17 00:30:48;;;;;;;41.67;25.73;;;3.90;99.90;;;;;;5018059;28;20115;-58
2022/03/17 00:33:14;;;;;;;51.47;30.67;;;3.90;99.90;;;;;;5018925;28;20030;-58
2022/03/17 00:35:42;;;;;;;57.45;32.85;;;3.80;99.90;;;;;;5020833;28;20030;-57
2022/03/17 00:38:14;;;;;;;58.22;31.75;;;3.70;99.90;;;;;;5017925;28;20033;-58
2022/03/17 00:40:41;;;;;;;69.45;36.47;;;3.70;99.90;;;;;;5012169;28;20037;-58
2022/03/17 00:43:09;;;;;;;66.82;36.75;;;3.70;99.90;;;;;;5018972;28;20141;-57
2022/03/17 00:45:35;;;;;;;60.95;33.83;;;3.60;99.90;;;;;;5018854;28;20037;-58
2022/03/17 00:48:02;;;;;;;54.95;29.48;;;3.60;99.90;;;;;;5016389;28;20060;-60
2022/03/17 00:50:28;;;;;;;48.85;30.10;;;3.50;99.90;;;;;;5016205;28;20030;-59
2022/03/17 00:52:54;;;;;;;46.10;27.70;;;3.40;99.90;;;;;;5017633;28;20034;-58
2022/03/17 00:55:23;;;;;;;45.50;27.05;;;3.40;99.90;;;;;;5015877;28;20030;-57
2022/03/17 00:57:49;;;;;;;44.67;27.13;;;3.30;99.90;;;;;;5017973;28;20041;-58
2022/03/17 01:00:18;;;;;;;50.05;29.60;;;3.30;99.90;;;;;;5021016;28;20029;-57
2022/03/17 01:02:45;;;;;;;43.38;27.35;;;3.20;99.90;;;;;;5018335;28;20014;-60
2022/03/17 01:05:11;;;;;;;49.88;27.58;;;3.20;99.90;;;;;;5021999;28;20504;-57
2022/03/17 01:07:37;;;;;;;65.13;36.00;;;3.20;99.90;;;;;;5018099;28;20042;-57
2022/03/17 01:10:05;;;;;;;69.65;37.13;;;3.20;99.90;;;;;;5017108;28;20141;-58
2022/03/17 01:12:31;;;;;;;71.22;37.92;;;3.40;99.90;;;;;;5017374;28;20045;-59
2022/03/17 01:14:57;;;;;;;63.13;35.50;;;3.40;99.90;;;;;;5018363;28;20409;-59
2022/03/17 01:17:22;;;;;;;65.40;35.30;;;3.50;99.90;;;;;;5017419;28;20028;-61
2022/03/17 01:19:48;;;;;;;70.07;36.75;;;3.50;99.90;;;;;;5013811;28;20076;-57
2022/03/17 01:22:13;;;;;;;68.63;37.38;;;3.50;99.90;;;;;;5021706;28;20423;-58
2022/03/17 01:24:39;;;;;;;37.42;24.42;;;3.50;99.90;;;;;;5015671;28;20084;-57
2022/03/17 01:27:05;;;;;;;36.13;21.73;;;3.50;99.90;;;;;;5018268;28;20026;-59
2022/03/17 01:29:30;;;;;;;32.67;19.65;;;3.40;99.90;;;;;;5018372;28;20030;-56
2022/03/17 01:31:56;;;;;;;30.15;18.73;;;3.20;99.90;;;;;;5018264;28;20125;-57
2022/03/17 01:34:22;;;;;;;25.08;19.00;;;3.10;99.90;;;;;;5017360;28;20033;-58
2022/03/17 01:36:48;;;;;;;28.85;20.35;;;3.00;99.90;;;;;;5010940;28;20113;-60
2022/03/17 01:39:13;;;;;;;33.30;22.08;;;2.90;99.90;;;;;;5019338;28;20033;-58
2022/03/17 01:41:39;;;;;;;35.80;23.25;;;2.80;99.90;;;;;;5014631;28;20026;-57
2022/03/17 01:44:06;;;;;;;50.90;29.20;;;2.70;99.90;;;;;;5016105;28;20030;-61
2022/03/17 01:47:26;;;;;;;46.80;26.83;;;2.70;99.90;;;;;;5016938;28;20496;-60
2022/03/17 01:49:17;;;;;;;44.55;25.48;;;2.70;99.90;;;;;;5016661;28;20037;-57
2022/03/17 01:51:45;;;;;;;72.00;38.72;;;2.70;99.90;;;;;;5015126;28;20080;-59
2022/03/17 01:54:11;;;;;;;46.80;26.95;;;2.70;99.90;;;;;;5018923;28;20045;-59
2022/03/17 01:56:37;;;;;;;60.80;34.33;;;2.80;99.90;;;;;;5017159;28;20105;-59
2022/03/17 01:59:03;;;;;;;60.03;31.23;;;2.80;99.90;;;;;;5012574;28;20120;-57
2022/03/17 02:01:29;;;;;;;63.28;34.50;;;2.80;99.90;;;;;;5019966;28;20596;-57
2022/03/17 02:03:56;;;;;;;62.95;33.78;;;2.80;99.90;;;;;;5018753;28;20113;-58
2022/03/17 02:06:23;;;;;;;65.20;35.35;;;2.80;99.90;;;;;;5017971;28;20078;-60
2022/03/17 02:08:49;;;;;;;89.60;42.88;;;2.90;99.90;;;;;;5016522;28;20030;-58
2022/03/17 02:13:59;;;;;;;69.60;36.35;;;3.00;99.90;;;;;;5017796;28;20108;-57
2022/03/17 02:16:28;;;;;;;82.90;43.08;;;3.00;99.90;;;;;;5011441;28;20500;-57
2022/03/17 02:18:53;;;;;;;83.93;42.40;;;3.00;99.90;;;;;;5014886;28;20034;-57
2022/03/17 02:21:19;;;;;;;75.45;39.40;;;3.10;99.90;;;;;;5030055;28;20041;-57
2022/03/17 02:26:31;;;;;;;121.30;59.55;;;3.10;99.90;;;;;;5018490;28;20096;-57
2022/03/17 02:28:58;;;;;;;163.15;72.00;;;3.20;99.90;;;;;;5015439;28;20033;-60
2022/03/17 02:31:24;;;;;;;99.88;48.60;;;3.30;99.90;;;;;;5014628;28;20085;-57
2022/03/17 02:33:51;;;;;;;126.85;59.63;;;3.30;99.90;;;;;;5020880;28;20113;-59
2022/03/17 02:36:18;;;;;;;100.38;48.67;;;3.30;99.90;;;;;;5014660;28;20504;-59
2022/03/17 02:38:44;;;;;;;78.95;39.17;;;3.40;99.90;;;;;;5013782;28;20061;-58
2022/03/17 02:41:21;;;;;;;73.40;38.40;;;3.40;99.90;;;;;;5020725;28;20033;-60
2022/03/17 02:43:51;;;;;;;69.85;35.80;;;3.40;99.90;;;;;;5017842;28;20095;-58
2022/03/17 02:46:17;;;;;;;63.50;36.63;;;3.40;99.90;;;;;;5016480;28;20026;-59
2022/03/17 02:48:43;;;;;;;59.22;34.35;;;3.40;99.90;;;;;;5013161;28;20338;-60
2022/03/17 02:51:09;;;;;;;64.43;36.50;;;3.40;99.90;;;;;;5013816;28;20685;-58
2022/03/17 02:53:35;;;;;;;97.80;46.92;;;3.40;99.90;;;;;;5021567;28;20046;-58
2022/03/17 02:56:00;;;;;;;79.82;40.45;;;3.40;99.90;;;;;;5021044;28;20033;-58
2022/03/17 02:58:26;;;;;;;71.00;36.78;;;3.40;99.90;;;;;;5019953;28;20029;-57
2022/03/17 03:00:52;;;;;;;72.35;37.20;;;3.40;99.90;;;;;;5020370;28;20064;-59
2022/03/17 03:03:17;;;;;;;88.25;45.80;;;3.40;99.90;;;;;;5019176;28;20510;-60
2022/03/17 03:05:44;;;;;;;84.95;44.83;;;3.40;99.90;;;;;;5019371;28;20106;-56
2022/03/17 03:08:10;;;;;;;71.47;38.40;;;3.40;99.90;;;;;;5015999;28;20038;-60
2022/03/17 03:10:35;;;;;;;72.00;36.90;;;3.40;99.90;;;;;;5016593;28;20033;-59
2022/03/17 03:13:02;;;;;;;70.43;38.20;;;3.40;99.90;;;;;;5021547;28;20488;-58
2022/03/17 03:15:29;;;;;;;64.65;35.60;;;3.40;99.90;;;;;;5018390;28;20036;-57
2022/03/17 03:17:55;;;;;;;65.68;34.53;;;3.30;99.90;;;;;;5020732;28;20060;-60
2022/03/17 03:20:22;;;;;;;54.45;30.50;;;3.20;99.90;;;;;;5017666;28;20024;-57
2022/03/17 03:22:47;;;;;;;49.53;30.42;;;3.20;99.90;;;;;;5019128;28;20101;-57
2022/03/17 03:25:13;;;;;;;53.95;30.55;;;3.20;99.90;;;;;;5023866;28;20146;-59
2022/03/17 03:27:40;;;;;;;61.85;35.25;;;3.10;99.90;;;;;;5022564;28;20491;-59
2022/03/17 03:30:07;;;;;;;68.60;36.58;;;3.10;99.90;;;;;;5021716;28;20072;-57
2022/03/17 03:32:34;;;;;;;66.28;37.65;;;3.10;99.90;;;;;;5015798;28;20052;-59
2022/03/17 03:37:22;;;;;;;79.70;38.95;;;3.10;99.90;;;;;;5019765;28;20026;-58
2022/03/17 03:37:45;;;;;;;61.47;35.70;;;3.20;99.90;;;;;;5016656;28;20158;-59
2022/03/17 03:40:10;;;;;;;60.25;33.95;;;3.20;99.90;;;;;;5018915;28;20132;-60
2022/03/17 03:42:36;;;;;;;66.90;34.67;;;3.20;99.90;;;;;;5020329;28;20030;-60
2022/03/17 03:45:02;;;;;;;47.58;27.70;;;3.20;99.90;;;;;;5016886;28;20135;-57
2022/03/17 03:47:27;;;;;;;51.55;30.27;;;3.10;99.90;;;;;;5023684;28;20522;-58
2022/03/17 03:49:53;;;;;;;60.40;32.05;;;3.00;99.90;;;;;;5018620;28;20047;-57
2022/03/17 03:52:19;;;;;;;61.42;34.85;;;3.00;99.90;;;;;;5018820;28;20034;-59
2022/03/17 03:54:44;;;;;;;66.70;34.05;;;2.90;99.90;;;;;;5019514;28;20034;-57
2022/03/17 03:57:10;;;;;;;69.00;36.35;;;2.90;99.90;;;;;;5013419;28;20026;-57
2022/03/17 03:59:36;;;;;;;67.60;36.78;;;2.90;99.90;;;;;;5021663;28;20041;-57
2022/03/17 04:02:09;;;;;;;64.95;36.50;;;2.90;99.90;;;;;;5018286;28;20030;-60
2022/03/17 04:04:39;;;;;;;64.25;36.60;;;2.90;99.90;;;;;;5017925;28;20145;-60
2022/03/17 04:07:08;;;;;;;72.80;38.70;;;2.90;99.90;;;;;;5015078;28;20072;-57
2022/03/17 04:09:38;;;;;;;65.72;35.78;;;2.90;99.90;;;;;;5019529;28;20030;-57
2022/03/17 04:12:04;;;;;;;59.42;34.40;;;2.90;99.90;;;;;;5016504;28;20446;-59
2022/03/17 04:14:31;;;;;;;70.43;39.28;;;3.00;99.90;;;;;;5017772;28;20362;-58
2022/03/17 04:16:57;;;;;;;70.57;38.47;;;3.00;99.90;;;;;;5015775;28;20022;-57
2022/03/17 04:19:24;;;;;;;55.92;33.13;;;3.00;99.90;;;;;;5021417;28;20030;-59
2022/03/17 04:21:49;;;;;;;64.85;34.70;;;3.00;99.90;;;;;;5020083;28;20029;-57
2022/03/17 04:24:16;;;;;;;58.28;33.97;;;3.00;99.90;;;;;;5018495;28;20392;-56
2022/03/17 04:26:42;;;;;;;56.20;33.60;;;3.00;99.90;;;;;;5019536;28;20101;-56
2022/03/17 04:29:09;;;;;;;55.10;32.38;;;3.00;99.90;;;;;;5018030;28;20114;-58
2022/03/17 04:31:36;;;;;;;63.15;34.03;;;3.00;99.90;;;;;;5018383;28;20076;-57
2022/03/17 04:34:02;;;;;;;57.53;32.97;;;2.90;99.90;;;;;;5015862;28;20374;-58
2022/03/17 04:36:28;;;;;;;65.80;36.05;;;2.90;99.90;;;;;;5020802;28;20057;-57
2022/03/17 04:38:53;;;;;;;52.15;31.05;;;2.90;99.90;;;;;;5018241;28;20018;-58
2022/03/17 04:41:19;;;;;;;54.35;29.60;;;2.90;99.90;;;;;;5020673;28;20500;-60
2022/03/17 04:43:45;;;;;;;55.90;31.98;;;2.90;99.90;;;;;;5015739;28;20037;-60
2022/03/17 04:46:11;;;;;;;52.30;30.77;;;2.90;99.90;;;;;;5021760;28;20026;-60
2022/03/17 04:48:37;;;;;;;62.42;34.95;;;2.80;99.90;;;;;;5024841;28;20034;-60
2022/03/17 04:51:03;;;;;;;56.90;33.75;;;2.90;99.90;;;;;;5017475;28;20030;-60
2022/03/17 04:53:35;;;;;;;54.13;30.83;;;2.80;99.90;;;;;;5020291;28;20167;-58
2022/03/17 04:56:08;;;;;;;61.72;35.67;;;2.80;99.90;;;;;;5016798;28;20030;-58
2022/03/17 04:58:36;;;;;;;60.13;33.70;;;2.90;99.90;;;;;;5019752;28;20022;-57
2022/03/17 05:01:03;;;;;;;55.58;32.60;;;2.90;99.90;;;;;;5014435;28;20377;-58
2022/03/17 05:03:29;;;;;;;62.85;35.00;;;2.90;99.90;;;;;;5017232;28;20033;-56
2022/03/17 05:05:55;;;;;;;58.80;33.40;;;2.90;99.90;;;;;;5020262;28;20089;-57
2022/03/17 05:08:21;;;;;;;63.28;36.53;;;3.00;99.90;;;;;;5018338;28;20485;-61
2022/03/17 05:10:48;;;;;;;51.58;29.38;;;3.00;99.90;;;;;;5017477;28;20036;-57
2022/03/17 05:13:16;;;;;;;75.72;40.28;;;3.00;99.90;;;;;;5015889;28;20485;-59
2022/03/17 05:15:42;;;;;;;59.20;31.58;;;3.00;99.90;;;;;;5015142;28;20152;-59
2022/03/17 05:18:09;;;;;;;49.67;30.65;;;3.10;99.90;;;;;;5018033;28;20049;-60
2022/03/17 05:20:36;;;;;;;68.65;37.10;;;3.10;99.90;;;;;;5020095;28;21037;-58
2022/03/17 05:23:07;;;;;;;52.63;30.73;;;3.10;99.90;;;;;;5017552;28;20492;-58
2022/03/17 05:25:32;;;;;;;49.28;29.33;;;3.10;99.90;;;;;;5017891;28;20099;-57
2022/03/17 05:28:01;;;;;;;47.00;28.92;;;3.20;99.90;;;;;;5016336;28;20026;-59
2022/03/17 05:30:28;;;;;;;46.63;29.35;;;3.20;99.90;;;;;;5017129;28;20120;-57
2022/03/17 05:32:54;;;;;;;50.50;30.73;;;3.10;99.90;;;;;;5016626;28;20029;-60
2022/03/17 05:35:21;;;;;;;61.35;32.88;;;3.10;99.90;;;;;;5015844;28;20460;-59
2022/03/17 05:37:48;;;;;;;63.70;36.85;;;3.10;99.90;;;;;;5016258;28;20037;-57
2022/03/17 05:40:15;;;;;;;70.50;39.22;;;3.10;99.90;;;;;;5020411;28;20443;-60
2022/03/17 05:42:46;;;;;;;79.05;39.88;;;3.20;99.90;;;;;;5025512;28;20030;-60
2022/03/17 05:45:12;;;;;;;66.97;36.90;;;3.30;99.90;;;;;;5022042;28;20041;-57
2022/03/17 05:47:40;;;;;;;55.75;31.58;;;3.30;99.90;;;;;;5018740;28;20050;-57
2022/03/17 05:50:09;;;;;;;60.45;34.33;;;3.30;99.90;;;;;;5017842;28;21199;-59
2022/03/17 05:52:36;;;;;;;61.45;33.20;;;3.30;99.90;;;;;;5013944;28;20034;-59
2022/03/17 05:55:02;;;;;;;66.57;36.38;;;3.30;99.90;;;;;;5013975;28;20030;-59
2022/03/17 05:57:27;;;;;;;65.82;35.20;;;3.30;99.90;;;;;;5018823;28;20028;-57
2022/03/17 05:59:53;;;;;;;67.43;36.63;;;3.30;99.90;;;;;;5017580;28;20394;-57
2022/03/17 06:02:19;;;;;;;68.50;36.60;;;3.30;99.90;;;;;;5017121;28;20030;-61
2022/03/17 06:04:46;;;;;;;66.22;35.58;;;3.30;99.90;;;;;;5017295;28;20022;-60
2022/03/17 06:07:11;;;;;;;64.05;34.72;;;3.30;99.90;;;;;;5014646;28;20033;-58
2022/03/17 06:09:38;;;;;;;49.55;29.50;;;3.30;99.90;;;;;;5017949;28;20510;-59
2022/03/17 06:12:05;;;;;;;51.67;30.73;;;3.40;99.90;;;;;;5017686;28;20104;-57
2022/03/17 06:14:32;;;;;;;61.08;34.00;;;3.40;99.90;;;;;;5017494;28;20388;-57
2022/03/17 06:16:58;;;;;;;46.10;29.45;;;3.50;99.90;;;;;;5016595;28;20026;-58
2022/03/17 06:19:24;;;;;;;49.05;29.38;;;3.50;99.90;;;;;;5018939;28;20378;-57
2022/03/17 06:21:50;;;;;;;48.95;28.30;;;3.50;99.90;;;;;;5013836;28;20053;-60
2022/03/17 06:24:15;;;;;;;44.30;26.85;;;3.50;99.90;;;;;;5022454;28;20041;-61
2022/03/17 06:26:41;;;;;;;52.70;29.63;;;3.50;99.90;;;;;;5018424;28;20029;-59
2022/03/17 06:29:06;;;;;;;50.95;29.90;;;3.60;99.90;;;;;;5019531;28;20061;-57
2022/03/17 06:31:32;;;;;;;55.30;32.63;;;3.60;99.90;;;;;;5018974;28;20041;-58
2022/03/17 06:33:58;;;;;;;53.15;32.10;;;3.70;99.90;;;;;;5016808;28;20358;-60
2022/03/17 06:36:26;;;;;;;75.65;38.88;;;3.70;99.90;;;;;;5020146;28;20045;-60
2022/03/17 06:38:51;;;;;;;89.68;44.33;;;3.70;99.90;;;;;;5018179;28;20849;-57
2022/03/17 06:41:17;;;;;;;69.00;36.22;;;3.80;99.90;;;;;;5016330;28;20057;-57
2022/03/17 06:43:43;;;;;;;55.10;31.13;;;3.90;99.90;;;;;;5018507;28;20022;-59
2022/03/17 06:46:08;;;;;;;83.85;37.70;;;3.90;99.90;;;;;;5014588;28;20413;-58
2022/03/17 06:48:34;;;;;;;87.40;40.70;;;4.00;99.90;;;;;;5015660;28;20453;-59
2022/03/17 06:51:00;;;;;;;82.90;40.70;;;4.10;99.90;;;;;;5012092;28;20045;-58
2022/03/17 06:53:26;;;;;;;64.78;34.83;;;4.20;99.90;;;;;;5015905;28;20091;-57
2022/03/17 06:55:51;;;;;;;59.63;34.15;;;4.30;99.90;;;;;;5016181;28;20032;-57
2022/03/17 06:58:17;;;;;;;64.75;36.42;;;4.30;99.90;;;;;;5016550;28;20116;-58
2022/03/17 07:00:43;;;;;;;74.60;40.25;;;4.40;99.90;;;;;;5014950;28;20088;-59
2022/03/17 07:03:08;;;;;;;75.00;42.33;;;4.60;99.90;;;;;;5017567;28;20014;-61
2022/03/17 07:05:34;;;;;;;70.38;40.90;;;4.70;99.90;;;;;;5019082;28;20366;-57
2022/03/17 07:08:00;;;;;;;64.78;36.92;;;4.80;99.90;;;;;;5017247;28;20030;-57
2022/03/17 07:10:27;;;;;;;63.53;38.55;;;4.80;99.90;;;;;;5017826;28;20030;-57
2022/03/17 07:12:53;;;;;;;63.97;37.10;;;4.90;99.90;;;;;;5014431;28;20026;-60
2022/03/17 07:15:19;;;;;;;64.75;37.78;;;5.10;99.90;;;;;;5023093;28;20022;-59
2022/03/17 07:17:45;;;;;;;55.45;32.88;;;5.10;99.90;;;;;;5021614;28;20030;-60
2022/03/17 07:20:15;;;;;;;49.60;32.47;;;5.20;99.90;;;;;;5016163;28;20155;-61
2022/03/17 07:22:44;;;;;;;52.65;30.50;;;5.30;99.90;;;;;;5032041;28;20034;-61
2022/03/17 07:25:11;;;;;;;50.50;29.85;;;5.30;99.90;;;;;;5015218;28;20033;-58
2022/03/17 07:27:42;;;;;;;53.75;32.22;;;5.30;99.90;;;;;;5016133;28;20079;-58
2022/03/17 07:30:10;;;;;;;55.80;34.33;;;5.40;99.90;;;;;;5013720;28;20481;-57
2022/03/17 07:32:36;;;;;;;58.03;35.03;;;5.40;99.90;;;;;;5017071;28;20030;-60
2022/03/17 07:35:02;;;;;;;68.65;38.40;;;5.40;99.90;;;;;;5014588;28;20049;-59
2022/03/17 07:37:27;;;;;;;55.53;34.70;;;5.50;99.90;;;;;;5015856;28;20037;-60
2022/03/17 07:39:53;;;;;;;63.25;37.35;;;5.60;99.90;;;;;;5026020;28;20026;-59
2022/03/17 07:42:18;;;;;;;73.85;36.90;;;5.60;99.90;;;;;;5017030;28;20047;-57
2022/03/17 07:44:44;;;;;;;63.20;36.47;;;5.70;99.90;;;;;;5020099;28;20416;-57
2022/03/17 07:47:10;;;;;;;50.72;32.88;;;5.80;99.90;;;;;;5020334;28;20030;-60
2022/03/17 07:49:38;;;;;;;52.20;31.20;;;6.00;99.90;;;;;;5019787;28;20038;-57
2022/03/17 07:52:07;;;;;;;51.65;31.42;;;6.20;99.90;;;;;;5015751;28;20080;-60
2022/03/17 07:54:33;;;;;;;51.08;31.48;;;6.30;99.90;;;;;;5019867;28;20026;-57
2022/03/17 07:57:00;;;;;;;57.05;34.33;;;6.40;99.90;;;;;;5020097;28;20017;-57
2022/03/17 07:59:27;;;;;;;68.22;34.28;;;6.50;99.90;;;;;;5018658;28;20030;-58
2022/03/17 08:01:53;;;;;;;58.13;36.33;;;6.60;99.90;;;;;;5021389;28;20024;-57
2022/03/17 08:04:19;;;;;;;65.65;39.22;;;6.60;99.90;;;;;;5007406;28;20104;-59
2022/03/17 08:06:44;;;;;;;64.15;37.83;;;6.60;99.90;;;;;;5015621;28;20053;-58
2022/03/17 08:09:10;;;;;;;63.42;38.40;;;6.70;99.90;;;;;;5021625;28;20104;-57
2022/03/17 08:11:36;;;;;;;69.07;40.92;;;6.70;99.90;;;;;;5017139;28;20662;-55
2022/03/17 08:14:01;;;;;;;93.72;48.42;;;6.80;99.90;;;;;;5019608;28;20037;-57
2022/03/17 08:16:27;;;;;;;114.53;57.10;;;6.80;99.90;;;;;;5020944;28;20030;-58
2022/03/17 08:18:53;;;;;;;85.28;48.72;;;6.90;99.90;;;;;;5017036;28;20030;-57
2022/03/17 08:21:19;;;;;;;74.60;42.80;;;6.90;99.90;;;;;;5016991;28;20416;-56
2022/03/17 08:23:45;;;;;;;65.78;40.28;;;7.00;99.90;;;;;;5020156;28;20018;-56
2022/03/17 08:26:12;;;;;;;65.00;38.50;;;7.10;99.90;;;;;;5019480;28;20481;-59
2022/03/17 08:28:38;;;;;;;65.35;39.85;;;7.10;99.90;;;;;;5018768;28;20041;-57
2022/03/17 08:31:03;;;;;;;65.25;41.30;;;7.30;99.90;;;;;;5016902;28;20035;-57
2022/03/17 08:33:29;;;;;;;65.25;40.40;;;7.30;99.90;;;;;;5013532;28;20087;-59
2022/03/17 08:35:54;;;;;;;61.30;40.63;;;7.40;99.90;;;;;;5019439;28;20072;-57
2022/03/17 08:38:20;;;;;;;62.15;40.05;;;7.50;99.90;;;;;;5018192;28;20034;-55
2022/03/17 08:40:46;;;;;;;65.35;41.75;;;7.60;99.90;;;;;;5020751;28;20071;-56
2022/03/17 08:43:12;;;;;;;70.75;42.22;;;7.60;99.90;;;;;;5020405;28;20022;-55
2022/03/17 08:51:10;;;;;;;68.38;39.47;;;7.80;99.90;;;;;;5013775;28;20112;-56
2022/03/17 08:53:36;;;;;;;66.45;39.20;;;8.00;99.90;;;;;;5015974;28;20472;-58
2022/03/17 08:56:05;;;;;;;66.82;40.60;;;8.10;99.90;;;;;;5014685;28;20053;-59
2022/03/17 08:58:31;;;;;;;85.07;47.45;;;8.20;99.90;;;;;;5020234;28;20493;-57
2022/03/17 09:01:00;;;;;;;83.50;46.33;;;8.20;99.90;;;;;;5016702;28;20038;-59
2022/03/17 09:03:26;;;;;;;68.75;41.22;;;8.40;99.90;;;;;;5017467;28;20547;-57
2022/03/17 09:05:52;;;;;;;80.35;44.28;;;8.60;99.90;;;;;;5018130;28;20025;-58
2022/03/17 09:08:17;;;;;;;64.18;39.08;;;8.90;99.90;;;;;;5014398;28;20113;-56
2022/03/17 09:10:43;;;;;;;58.83;37.65;;;9.10;99.90;;;;;;5016019;28;20393;-55
2022/03/17 09:13:09;;;;;;;69.20;40.95;;;9.30;99.90;;;;;;5017325;28;20044;-56
2022/03/17 09:15:40;;;;;;;69.95;41.67;;;9.50;99.90;;;;;;5019849;28;20037;-56
2022/03/17 09:18:08;;;;;;;71.43;42.45;;;9.60;99.90;;;;;;5016723;28;20089;-56
2022/03/17 09:20:35;;;;;;;67.28;38.95;;;9.80;99.90;;;;;;5019836;28;20068;-56
2022/03/17 09:23:02;;;;;;;58.05;36.85;;;9.90;99.90;;;;;;5017813;28;20072;-60
2022/03/17 09:25:28;;;;;;;57.42;38.78;;;10.00;99.90;;;;;;5031991;28;20022;-57
2022/03/17 09:27:54;;;;;;;62.08;40.25;;;10.00;99.90;;;;;;5020265;28;20022;-59
2022/03/17 09:30:21;;;;;;;53.45;36.17;;;10.00;99.90;;;;;;5019655;28;20493;-56
2022/03/17 09:32:46;;;;;;;54.28;36.78;;;10.20;99.90;;;;;;5018301;28;20033;-56
2022/03/17 09:35:13;;;;;;;54.50;36.75;;;10.40;99.20;;;;;;5017508;28;20033;-56
2022/03/17 09:37:39;;;;;;;55.97;38.97;;;10.30;96.30;;;;;;5017319;28;20030;-56
2022/03/17 09:40:09;;;;;;;60.60;38.45;;;10.50;97.10;;;;;;5017200;28;20401;-58
2022/03/17 09:42:36;;;;;;;59.67;39.33;;;10.50;98.20;;;;;;5017223;28;20551;-57
2022/03/17 09:45:02;;;;;;;56.13;36.45;;;10.60;97.20;;;;;;5019157;28;20546;-56
2022/03/17 09:47:32;;;;;;;50.78;36.30;;;10.80;97.40;;;;;;5017633;28;20048;-58
2022/03/17 09:49:59;;;;;;;62.38;38.60;;;10.90;97.40;;;;;;5011150;28;20062;-58
2022/03/17 09:52:26;;;;;;;55.28;38.38;;;11.00;95.90;;;;;;5016478;28;20036;-58
2022/03/17 09:54:52;;;;;;;54.88;38.28;;;11.00;96.50;;;;;;5028297;28;20484;-56
2022/03/17 09:57:19;;;;;;;54.05;36.83;;;10.90;96.40;;;;;;5014678;28;20041;-56
2022/03/17 09:59:46;;;;;;;55.25;38.42;;;10.70;96.70;;;;;;5014488;28;20026;-55
2022/03/17 10:02:16;;;;;;;56.85;37.60;;;10.60;97.40;;;;;;5009994;28;20037;-57
2022/03/17 10:04:44;;;;;;;58.38;37.80;;;10.60;96.60;;;;;;5013608;28;20416;-58
2022/03/17 10:07:14;;;;;;;55.03;37.28;;;10.80;97.40;;;;;;5012626;28;20041;-60
2022/03/17 10:09:42;;;;;;;55.22;37.03;;;10.90;95.90;;;;;;5014482;28;20073;-56
2022/03/17 10:12:10;;;;;;;52.17;36.75;;;11.00;95.60;;;;;;5012596;28;20512;-58
2022/03/17 10:14:36;;;;;;;54.35;37.55;;;11.10;95.70;;;;;;5014292;28;20029;-56
2022/03/17 10:17:04;;;;;;;52.38;38.03;;;11.10;94.80;;;;;;5017424;28;20026;-56
2022/03/17 10:19:36;;;;;;;52.30;37.70;;;11.00;94.50;;;;;;5015209;28;20060;-57
2022/03/17 10:22:09;;;;;;;53.55;37.80;;;11.10;94.50;;;;;;5012753;28;20814;-57
2022/03/17 10:24:36;;;;;;;52.72;37.90;;;11.10;94.20;;;;;;5014004;28;20037;-58
2022/03/17 10:27:04;;;;;;;58.55;38.45;;;11.00;94.20;;;;;;5017084;28;20100;-57
2022/03/17 10:29:30;;;;;;;59.80;39.03;;;10.90;94.30;;;;;;5020988;28;20037;-56
2022/03/17 10:32:02;;;;;;;57.92;37.30;;;10.70;93.20;;;;;;5016370;28;20113;-56
2022/03/17 10:34:30;;;;;;;60.72;38.45;;;10.60;93.80;;;;;;5015647;28;20026;-57
2022/03/17 10:37:16;;;;;;;57.20;38.42;;;10.60;93.50;;;;;;5018149;28;20030;-56
2022/03/17 10:39:45;;;;;;;63.53;39.33;;;10.60;94.10;;;;;;5030608;28;20504;-56
2022/03/17 10:42:23;;;;;;;58.70;37.17;;;10.50;93.90;;;;;;5012755;28;20050;-58
2022/03/17 10:44:55;;;;;;;56.40;38.47;;;10.60;94.90;;;;;;5013389;28;20036;-58
2022/03/17 10:47:30;;;;;;;56.70;35.90;;;10.60;93.70;;;;;;5016999;28;20504;-56
2022/03/17 10:50:17;;;;;;;54.80;35.75;;;10.60;92.80;;;;;;5015972;28;20051;-56
2022/03/17 10:52:56;;;;;;;55.97;35.28;;;10.70;92.60;;;;;;5015212;28;20064;-59
2022/03/17 10:55:27;;;;;;;57.10;36.85;;;10.70;92.30;;;;;;5015294;28;20048;-57
2022/03/17 10:58:13;;;;;;;58.53;37.92;;;10.80;91.90;;;;;;5015156;28;20136;-55
2022/03/17 11:00:53;;;;;;;62.78;35.72;;;10.80;91.80;;;;;;5018805;28;20030;-56
2022/03/17 11:03:20;;;;;;;56.75;36.47;;;10.80;91.70;;;;;;5015128;28;20030;-56
2022/03/17 11:05:50;;;;;;;55.42;34.72;;;11.00;91.00;;;;;;5018534;28;20042;-56
2022/03/17 11:08:20;;;;;;;54.10;35.37;;;11.10;91.20;;;;;;5017922;28;20552;-56
2022/03/17 11:10:45;;;;;;;54.35;34.53;;;11.30;90.80;;;;;;5017060;28;20029;-58
2022/03/17 11:13:11;;;;;;;56.20;34.58;;;11.50;90.60;;;;;;5017254;28;20026;-56
2022/03/17 11:15:42;;;;;;;44.92;32.63;;;11.60;89.30;;;;;;5020051;28;20025;-59
2022/03/17 11:18:20;;;;;;;52.80;34.28;;;11.90;87.80;;;;;;5021568;28;20028;-55
2022/03/17 11:20:46;;;;;;;49.85;31.17;;;12.10;87.50;;;;;;5018294;28;20032;-55
2022/03/17 11:23:20;;;;;;;40.22;30.85;;;12.20;86.80;;;;;;5015840;28;20033;-56
2022/03/17 11:25:56;;;;;;;45.22;31.23;;;12.20;84.60;;;;;;5026439;28;20022;-56
2022/03/17 11:28:33;;;;;;;42.67;29.35;;;12.20;83.10;;;;;;5020050;28;20179;-58
2022/03/17 11:31:04;;;;;;;37.78;29.83;;;12.10;82.40;;;;;;5018419;28;20040;-57
2022/03/17 11:33:35;;;;;;;40.75;27.80;;;12.00;83.20;;;;;;5021247;28;20072;-58
2022/03/17 11:36:10;;;;;;;40.72;28.70;;;12.00;82.00;;;;;;5020863;28;20030;-56
2022/03/17 11:38:41;;;;;;;36.20;27.30;;;12.10;83.30;;;;;;5021108;28;20041;-56
2022/03/17 11:41:26;;;;;;;38.35;27.35;;;12.30;82.40;;;;;;5019767;28;20048;-55
2022/03/17 11:43:52;;;;;;;39.03;26.50;;;12.40;81.70;;;;;;5018781;28;20030;-56
2022/03/17 11:46:22;;;;;;;50.03;28.27;;;12.60;80.80;;;;;;5020556;28;20095;-58
2022/03/17 11:48:55;;;;;;;37.03;24.67;;;12.70;79.20;;;;;;5016859;28;20022;-56
2022/03/17 11:51:23;;;;;;;33.00;24.20;;;12.50;78.70;;;;;;5018011;28;20130;-57
2022/03/17 11:53:51;;;;;;;34.47;24.10;;;12.50;79.40;;;;;;5021834;28;20064;-57
2022/03/17 11:56:47;;;;;;;31.20;23.73;;;12.70;79.40;;;;;;5016991;28;20041;-56
2022/03/17 11:59:16;;;;;;;33.83;23.58;;;12.80;78.30;;;;;;5017932;28;20030;-56
2022/03/17 12:01:46;;;;;;;27.20;22.38;;;12.80;76.30;;;;;;5018418;28;20036;-58
2022/03/17 12:04:28;;;;;;;31.08;22.58;;;12.80;77.90;;;;;;5015062;28;20029;-57
2022/03/17 12:07:05;;;;;;;28.75;22.73;;;13.00;77.70;;;;;;5021424;28;20543;-57
2022/03/17 12:09:32;;;;;;;32.08;23.90;;;13.10;77.90;;;;;;5015866;28;20033;-57
2022/03/17 12:11:58;;;;;;;31.70;24.00;;;13.30;78.50;;;;;;5014063;28;20103;-58
2022/03/17 12:14:24;;;;;;;29.30;23.05;;;13.40;75.50;;;;;;5014356;28;20049;-56
2022/03/17 12:16:57;;;;;;;26.92;23.15;;;13.40;75.50;;;;;;5018680;28;20045;-57
2022/03/17 12:19:35;;;;;;;35.88;24.45;;;13.50;76.70;;;;;;5018446;28;20029;-57
2022/03/17 12:22:01;;;;;;;28.23;22.85;;;13.60;73.50;;;;;;5018507;28;20029;-56
2022/03/17 12:24:48;;;;;;;28.60;23.13;;;13.60;76.90;;;;;;5019465;28;20021;-58
2022/03/17 12:27:14;;;;;;;33.22;24.38;;;13.70;74.60;;;;;;5015072;28;20071;-59
2022/03/17 12:29:41;;;;;;;29.67;21.95;;;13.70;74.00;;;;;;5018893;28;20041;-56
2022/03/17 12:32:11;;;;;;;28.88;23.33;;;13.80;75.70;;;;;;5017419;28;20037;-58
2022/03/17 12:34:38;;;;;;;27.42;22.70;;;13.90;72.40;;;;;;5022648;28;20018;-57
2022/03/17 12:37:05;;;;;;;27.50;22.23;;;14.00;72.20;;;;;;5018980;28;20125;-60
2022/03/17 12:39:32;;;;;;;27.38;24.02;;;14.10;72.90;;;;;;5016293;28;20022;-59
2022/03/17 12:41:59;;;;;;;28.40;23.10;;;14.10;69.40;;;;;;5022412;28;20026;-59
2022/03/17 12:44:26;;;;;;;29.25;22.83;;;14.10;70.30;;;;;;5018054;28;20037;-57
2022/03/17 12:46:53;;;;;;;26.45;22.83;;;14.10;74.60;;;;;;5017786;28;20030;-56